Time;durP1;ratioP1;P1;durP2;ratioP2;P2;SDS_P1;SDS_P2;PMS_P1;PMS_P2;Temp;Humidity;BMP_temperature;BMP_pressure;BME280_temperature;BME280_humidity;BME280_pressure;Samples;Min_cycle;Max_cycle;Signal;HPM_P1;HPM_P2
2022/03/16 00:00:47;;;;;;;114.00;18.83;;;;;;;;;;20917932;28;20049;-59
2022/03/16 00:10:49;;;;;;;107.53;17.50;;;;;;;;;;20916234;28;20060;-61
2022/03/16 00:20:51;;;;;;;108.07;18.17;;;;;;;;;;20915962;28;20053;-57
2022/03/16 00:30:53;;;;;;;104.55;18.88;;;;;;;;;;20915740;28;20049;-57
2022/03/16 00:40:55;;;;;;;114.03;17.45;;;;;;;;;;20915133;28;20540;-60
2022/03/16 00:50:57;;;;;;;110.28;18.30;;;;;;;;;;20914077;28;20057;-57
2022/03/16 01:00:59;;;;;;;88.57;15.77;;;;;;;;;;20914040;28;20489;-59
2022/03/16 01:11:00;;;;;;;99.35;15.93;;;;;;;;;;20913805;28;20433;-59
2022/03/16 01:21:05;;;;;;;88.30;16.38;;;;;;;;;;20912092;28;20056;-61
2022/03/16 01:31:07;;;;;;;99.75;18.35;;;;;;;;;;20912640;28;20056;-60
2022/03/16 01:41:08;;;;;;;80.85;14.77;;;;;;;;;;20914082;28;20102;-60
2022/03/16 01:51:10;;;;;;;92.68;16.48;;;;;;;;;;20927042;28;20118;-56
2022/03/16 02:01:14;;;;;;;73.93;13.95;;;;;;;;;;20927005;28;20049;-61
2022/03/16 02:11:16;;;;;;;89.38;13.32;;;;;;;;;;20925814;28;20094;-58
2022/03/16 02:21:20;;;;;;;77.07;13.80;;;;;;;;;;20925024;28;20489;-56
2022/03/16 02:31:22;;;;;;;82.68;15.43;;;;;;;;;;20924293;28;20577;-57
2022/03/16 02:41:29;;;;;;;89.05;13.65;;;;;;;;;;20923475;28;20041;-60
2022/03/16 02:51:34;;;;;;;80.85;13.88;;;;;;;;;;20922687;28;20064;-58
2022/03/16 03:01:55;;;;;;;79.93;13.95;;;;;;;;;;20921914;28;20049;-57
2022/03/16 03:12:01;;;;;;;74.28;13.98;;;;;;;;;;20922690;28;20049;-57
2022/03/16 03:22:05;;;;;;;87.72;14.73;;;;;;;;;;20920308;28;20049;-57
2022/03/16 03:32:08;;;;;;;76.75;14.98;;;;;;;;;;20919578;28;20048;-58
2022/03/16 03:42:10;;;;;;;69.07;12.75;;;;;;;;;;20918993;28;20087;-60
2022/03/16 03:52:13;;;;;;;88.80;15.15;;;;;;;;;;20918783;28;20053;-60
2022/03/16 04:02:15;;;;;;;78.32;13.88;;;;;;;;;;20917075;28;20053;-62
2022/03/16 04:12:18;;;;;;;76.00;14.57;;;;;;;;;;20917384;28;20074;-58
2022/03/16 04:22:21;;;;;;;70.53;11.67;;;;;;;;;;20915875;28;20417;-58
2022/03/16 04:32:26;;;;;;;86.15;13.57;;;;;;;;;;20916295;28;20503;-60
2022/03/16 04:42:28;;;;;;;72.15;15.35;;;;;;;;;;20914492;28;20044;-60
2022/03/16 04:52:31;;;;;;;65.75;12.43;;;;;;;;;;20913599;28;20354;-60
2022/03/16 05:02:34;;;;;;;70.18;11.98;;;;;;;;;;20912780;28;20045;-58
2022/03/16 05:12:37;;;;;;;58.60;11.18;;;;;;;;;;20913822;28;20135;-59
2022/03/16 05:22:41;;;;;;;50.72;10.20;;;;;;;;;;20912164;28;20148;-57
2022/03/16 05:32:43;;;;;;;63.55;10.63;;;;;;;;;;20911712;28;20053;-57
2022/03/16 05:42:45;;;;;;;63.28;10.73;;;;;;;;;;20911126;28;20099;-57
2022/03/16 05:52:47;;;;;;;47.22;10.00;;;;;;;;;;20911070;28;20052;-56
2022/03/16 06:02:50;;;;;;;46.97;10.05;;;;;;;;;;20910435;28;20055;-58
2022/03/16 06:13:01;;;;;;;55.25;10.52;;;;;;;;;;20910639;28;20045;-57
2022/03/16 06:23:05;;;;;;;46.10;9.88;;;;;;;;;;20910489;28;20207;-60
2022/03/16 06:33:08;;;;;;;45.42;8.93;;;;;;;;;;20920957;28;20049;-60
2022/03/16 06:43:10;;;;;;;43.13;8.15;;;;;;;;;;20923980;28;20546;-62
2022/03/16 06:53:12;;;;;;;46.45;10.30;;;;;;;;;;20923426;28;20185;-61
2022/03/16 07:03:14;;;;;;;55.33;9.10;;;;;;;;;;20922622;28;20045;-62
2022/03/16 07:13:16;;;;;;;59.03;9.35;;;;;;;;;;20921596;28;20118;-58
2022/03/16 07:23:18;;;;;;;47.70;9.63;;;;;;;;;;20920072;28;20049;-58
2022/03/16 07:33:20;;;;;;;53.78;11.57;;;;;;;;;;20918959;28;20056;-57
2022/03/16 07:43:22;;;;;;;45.63;8.77;;;;;;;;;;20919298;28;20045;-60
2022/03/16 07:53:24;;;;;;;73.97;12.02;;;;;;;;;;20918198;28;20053;-61
2022/03/16 08:03:27;;;;;;;49.25;11.63;;;;;;;;;;20916889;28;20420;-60
2022/03/16 08:13:29;;;;;;;49.65;10.35;;;;;;;;;;20916222;28;20049;-59
2022/03/16 08:23:32;;;;;;;49.45;10.27;;;;;;;;;;20915615;28;20084;-60
2022/03/16 08:33:34;;;;;;;39.65;8.40;;;;;;;;;;20914683;28;20057;-58
2022/03/16 08:43:37;;;;;;;47.72;10.60;;;;;;;;;;20915441;28;20052;-59
2022/03/16 08:53:39;;;;;;;58.88;11.13;;;;;;;;;;20914338;28;20497;-61
2022/03/16 09:03:41;;;;;;;53.45;11.25;;;;;;;;;;20913775;28;20409;-58
2022/03/16 09:13:44;;;;;;;51.58;9.00;;;;;;;;;;20916165;28;20114;-58
2022/03/16 09:23:47;;;;;;;35.90;8.88;;;;;;;;;;20913363;28;20135;-60
2022/03/16 09:33:48;;;;;;;44.42;9.23;;;;;;;;;;20915795;28;20477;-60
2022/03/16 09:43:51;;;;;;;47.22;9.32;;;;;;;;;;20911904;28;20041;-59
2022/03/16 09:53:53;;;;;;;40.50;8.95;;;;;;;;;;20912279;28;20056;-60
2022/03/16 10:04:06;;;;;;;51.33;8.82;;;;;;;;;;20917570;28;20135;-62
2022/03/16 10:14:11;;;;;;;43.70;8.85;;;;;;;;;;20908427;28;20048;-58
2022/03/16 10:24:14;;;;;;;40.45;8.90;;;;;;;;;;20870917;28;20068;-59
2022/03/16 10:34:16;;;;;;;44.75;8.23;;;;;;;;;;20869017;28;20056;-58
2022/03/16 10:54:39;;;;;;;42.35;8.25;;;;;;;;;;20840088;28;20104;-56
2022/03/16 11:04:45;;;;;;;48.65;7.93;;;;;;;;;;20849682;28;20041;-57
2022/03/16 11:14:50;;;;;;;41.75;7.75;;;;;;;;;;20848828;28;20437;-59
2022/03/16 11:24:57;;;;;;;37.88;8.50;;;;;;;;;;20856649;28;20055;-56
2022/03/16 11:35:00;;;;;;;27.60;6.72;;;;;;;;;;20867094;28;20189;-59
2022/03/16 11:45:21;;;;;;;37.92;7.15;;;;;;;;;;20891676;28;20048;-59
2022/03/16 11:55:59;;;;;;;33.90;8.25;;;;;;;;;;20906558;28;20124;-59
2022/03/16 12:06:03;;;;;;;32.05;6.40;;;;;;;;;;20576604;28;20558;-59
2022/03/16 12:16:08;;;;;;;28.50;6.05;;;;;;;;;;20543832;28;20090;-56
2022/03/16 12:26:10;;;;;;;;;;;;;;;;;;20574893;28;20081;-60
2022/03/16 12:36:12;;;;;;;33.67;6.10;;;;;;;;;;20748398;28;19921;-60
2022/03/16 12:46:20;;;;;;;29.13;6.43;;;;;;;;;;20912527;28;20053;-72
2022/03/16 12:56:22;;;;;;;25.83;5.35;;;;;;;;;;20914249;28;20053;-59
2022/03/16 13:06:24;;;;;;;24.88;5.28;;;;;;;;;;20913127;28;20052;-62
2022/03/16 13:16:31;;;;;;;20.85;6.28;;;;;;;;;;20912170;28;20523;-60
2022/03/16 13:26:34;;;;;;;23.33;5.03;;;;;;;;;;20911781;28;20057;-73
2022/03/16 13:36:37;;;;;;;29.27;6.60;;;;;;;;;;20914778;28;20040;-64
2022/03/16 13:46:39;;;;;;;19.52;4.82;;;;;;;;;;20926752;28;20049;-72
2022/03/16 13:56:40;;;;;;;25.92;5.82;;;;;;;;;;20927283;28;20493;-73
2022/03/16 14:06:42;;;;;;;26.60;5.43;;;;;;;;;;20928147;28;20049;-72
2022/03/16 14:16:47;;;;;;;25.25;6.45;;;;;;;;;;20924986;28;20508;-68
2022/03/16 14:26:49;;;;;;;25.20;6.35;;;;;;;;;;20925149;28;20049;-64
2022/03/16 14:36:52;;;;;;;33.30;9.07;;;;;;;;;;20924023;28;20065;-71
2022/03/16 14:46:55;;;;;;;40.23;8.30;;;;;;;;;;20922766;28;20049;-65
2022/03/16 14:57:00;;;;;;;30.13;6.72;;;;;;;;;;20921764;28;20488;-60
2022/03/16 15:07:02;;;;;;;;;;;;;;;;;;20921357;28;20060;-61
2022/03/16 15:17:04;;;;;;;31.42;7.53;;;;;;;;;;20919816;28;19999;-71
2022/03/16 15:27:07;;;;;;;43.60;7.30;;;;;;;;;;20919249;28;20056;-60
2022/03/16 15:37:09;;;;;;;24.50;5.95;;;;;;;;;;20918281;28;20056;-71
2022/03/16 15:47:12;;;;;;;31.58;6.65;;;;;;;;;;20917535;28;20123;-60
2022/03/16 15:57:14;;;;;;;33.50;7.18;;;;;;;;;;20916144;28;20052;-59
2022/03/16 16:07:20;;;;;;;32.08;6.68;;;;;;;;;;20915317;28;20118;-70
2022/03/16 16:17:23;;;;;;;36.80;9.77;;;;;;;;;;20915821;28;20123;-63
2022/03/16 16:27:26;;;;;;;53.90;9.25;;;;;;;;;;20915000;28;20080;-67
2022/03/16 16:37:29;;;;;;;39.75;8.80;;;;;;;;;;20914417;28;20084;-67
2022/03/16 16:47:38;;;;;;;28.95;7.72;;;;;;;;;;20913592;28;20068;-69
2022/03/16 16:57:40;;;;;;;39.92;8.20;;;;;;;;;;20906919;28;20102;-58
2022/03/16 17:07:44;;;;;;;36.90;9.00;;;;;;;;;;20995644;28;20114;-60
2022/03/16 17:17:49;;;;;;;33.40;9.90;;;;;;;;;;20947869;28;20525;-60
2022/03/16 17:27:54;;;;;;;36.88;9.10;;;;;;;;;;20911840;28;20053;-62
2022/03/16 17:37:56;;;;;;;21.55;5.78;;;;;;;;;;20909236;28;20044;-62
2022/03/16 17:48:01;;;;;;;22.05;5.10;;;;;;;;;;20876741;28;20049;-56
2022/03/16 17:58:03;;;;;;;28.92;6.72;;;;;;;;;;20906278;28;20462;-60
2022/03/16 18:08:05;;;;;;;17.45;5.88;;;;;;;;;;20906510;28;20401;-56
2022/03/16 18:18:07;;;;;;;16.75;5.28;;;;;;;;;;20906396;28;20908;-58
2022/03/16 18:28:09;;;;;;;20.55;5.80;;;;;;;;;;20914671;28;20098;-57
2022/03/16 18:38:11;;;;;;;21.92;5.82;;;;;;;;;;20922019;28;20122;-58
2022/03/16 18:48:16;;;;;;;16.92;4.28;;;;;;;;;;20921539;28;20126;-63
2022/03/16 18:58:18;;;;;;;;;;;;;;;;;;20921634;28;20041;-58
2022/03/16 19:08:20;;;;;;;20.45;5.32;;;;;;;;;;20921956;28;20360;-54
2022/03/16 19:18:22;;;;;;;15.07;5.45;;;;;;;;;;20922145;28;20421;-59
2022/03/16 19:28:27;;;;;;;24.73;5.90;;;;;;;;;;20921939;28;20053;-55
2022/03/16 19:38:29;;;;;;;23.75;7.32;;;;;;;;;;20918201;28;20091;-57
2022/03/16 19:48:32;;;;;;;19.00;7.13;;;;;;;;;;20914701;28;20048;-55
2022/03/16 19:58:34;;;;;;;16.45;6.32;;;;;;;;;;20845621;28;20060;-63
2022/03/16 20:08:37;;;;;;;18.55;6.10;;;;;;;;;;20834395;28;20574;-56
2022/03/16 20:18:39;;;;;;;32.08;7.30;;;;;;;;;;20912402;28;20106;-59
2022/03/16 20:28:42;;;;;;;16.83;5.60;;;;;;;;;;20915011;28;20489;-60
2022/03/16 20:38:45;;;;;;;17.08;6.10;;;;;;;;;;20915096;28;20045;-64
2022/03/16 20:48:47;;;;;;;30.52;8.35;;;;;;;;;;20914884;28;20055;-59
2022/03/16 21:09:14;;;;;;;16.17;6.43;;;;;;;;;;20913035;28;20556;-58
2022/03/16 21:19:17;;;;;;;18.27;6.13;;;;;;;;;;20912073;28;20060;-58
2022/03/16 21:29:21;;;;;;;19.35;6.50;;;;;;;;;;20911761;28;20132;-59
2022/03/16 21:39:26;;;;;;;14.85;5.95;;;;;;;;;;20911082;28;20103;-58
2022/03/16 21:49:31;;;;;;;13.63;5.55;;;;;;;;;;20911182;28;20057;-58
2022/03/16 21:59:34;;;;;;;15.13;5.57;;;;;;;;;;20918223;28;20049;-59
2022/03/16 22:09:36;;;;;;;27.15;5.03;;;;;;;;;;20927451;28;20512;-59
2022/03/16 22:19:38;;;;;;;29.23;6.45;;;;;;;;;;20926315;28;20041;-58
2022/03/16 22:29:40;;;;;;;15.80;5.60;;;;;;;;;;20925599;28;20056;-59
2022/03/16 22:39:42;;;;;;;19.67;6.07;;;;;;;;;;20924836;28;20473;-60
2022/03/16 22:49:45;;;;;;;19.30;6.20;;;;;;;;;;20923960;28;20556;-59
2022/03/16 22:59:47;;;;;;;18.27;6.38;;;;;;;;;;20923062;28;20067;-59
2022/03/16 23:09:49;;;;;;;17.70;6.22;;;;;;;;;;20921710;28;20436;-57
2022/03/16 23:19:52;;;;;;;22.70;6.45;;;;;;;;;;20921155;28;20120;-59
2022/03/16 23:29:54;;;;;;;23.35;5.43;;;;;;;;;;20920712;28;20132;-59
2022/03/16 23:39:56;;;;;;;21.70;6.22;;;;;;;;;;20920612;28;20041;-62
2022/03/16 23:49:58;;;;;;;26.35;6.47;;;;;;;;;;20918974;28;20053;-60
